sensor_id;sensor_type;location;lat;lon;timestamp;P1;durP1;ratioP1;P2;durP2;ratioP2
58581;SDS011;44361;51.476;5.700;2024-03-02T00:00:20;4.82;;;0.88;;
58581;SDS011;44361;51.476;5.700;2024-03-02T00:02:50;3.25;;;0.65;;
58581;SDS011;44361;51.476;5.700;2024-03-02T00:05:17;4.10;;;0.85;;
58581;SDS011;44361;51.476;5.700;2024-03-02T00:07:53;3.33;;;1.08;;
58581;SDS011;44361;51.476;5.700;2024-03-02T00:10:26;4.10;;;0.70;;
58581;SDS011;44361;51.476;5.700;2024-03-02T00:13:00;4.28;;;0.70;;
58581;SDS011;44361;51.476;5.700;2024-03-02T00:15:42;1.88;;;0.73;;
58581;SDS011;44361;51.476;5.700;2024-03-02T00:18:13;3.53;;;0.57;;
58581;SDS011;44361;51.476;5.700;2024-03-02T00:20:41;1.75;;;0.65;;
58581;SDS011;44361;51.476;5.700;2024-03-02T00:23:07;3.20;;;0.73;;
58581;SDS011;44361;51.476;5.700;2024-03-02T00:25:50;2.50;;;0.70;;
58581;SDS011;44361;51.476;5.700;2024-03-02T00:30:59;2.17;;;0.77;;
58581;SDS011;44361;51.476;5.700;2024-03-02T00:33:36;4.10;;;0.80;;
58581;SDS011;44361;51.476;5.700;2024-03-02T00:36:09;2.63;;;0.82;;
58581;SDS011;44361;51.476;5.700;2024-03-02T00:38:42;5.15;;;0.85;;
58581;SDS011;44361;51.476;5.700;2024-03-02T00:41:30;2.05;;;0.60;;
58581;SDS011;44361;51.476;5.700;2024-03-02T00:44:03;3.83;;;0.40;;
58581;SDS011;44361;51.476;5.700;2024-03-02T00:46:36;0.85;;;0.30;;
58581;SDS011;44361;51.476;5.700;2024-03-02T00:49:04;3.25;;;0.30;;
58581;SDS011;44361;51.476;5.700;2024-03-02T00:51:31;0.35;;;0.10;;
58581;SDS011;44361;51.476;5.700;2024-03-02T00:54:00;0.47;;;0.20;;
58581;SDS011;44361;51.476;5.700;2024-03-02T00:56:29;0.30;;;0.30;;
58581;SDS011;44361;51.476;5.700;2024-03-02T00:58:55;0.77;;;0.25;;
58581;SDS011;44361;51.476;5.700;2024-03-02T01:01:21;0.68;;;0.17;;
58581;SDS011;44361;51.476;5.700;2024-03-02T01:03:47;0.50;;;0.30;;
58581;SDS011;44361;51.476;5.700;2024-03-02T01:06:14;1.33;;;0.35;;
58581;SDS011;44361;51.476;5.700;2024-03-02T01:08:40;0.75;;;0.20;;
58581;SDS011;44361;51.476;5.700;2024-03-02T01:11:05;0.40;;;0.20;;
58581;SDS011;44361;51.476;5.700;2024-03-02T01:13:31;0.95;;;0.20;;
58581;SDS011;44361;51.476;5.700;2024-03-02T01:15:57;0.70;;;0.30;;
58581;SDS011;44361;51.476;5.700;2024-03-02T01:18:23;0.50;;;0.20;;
58581;SDS011;44361;51.476;5.700;2024-03-02T01:20:49;0.38;;;0.20;;
58581;SDS011;44361;51.476;5.700;2024-03-02T01:23:20;0.38;;;0.15;;
58581;SDS011;44361;51.476;5.700;2024-03-02T01:25:49;0.10;;;0.10;;
58581;SDS011;44361;51.476;5.700;2024-03-02T01:28:15;0.32;;;0.15;;
58581;SDS011;44361;51.476;5.700;2024-03-02T01:30:41;1.27;;;0.10;;
58581;SDS011;44361;51.476;5.700;2024-03-02T01:33:06;0.65;;;0.20;;
58581;SDS011;44361;51.476;5.700;2024-03-02T01:35:32;0.40;;;0.10;;
58581;SDS011;44361;51.476;5.700;2024-03-02T01:37:59;0.28;;;0.17;;
58581;SDS011;44361;51.476;5.700;2024-03-02T01:40:25;0.98;;;0.28;;
58581;SDS011;44361;51.476;5.700;2024-03-02T01:42:51;0.28;;;0.10;;
58581;SDS011;44361;51.476;5.700;2024-03-02T01:45:19;0.30;;;0.10;;
58581;SDS011;44361;51.476;5.700;2024-03-02T01:47:44;1.75;;;0.20;;
58581;SDS011;44361;51.476;5.700;2024-03-02T01:50:11;0.10;;;0.10;;
58581;SDS011;44361;51.476;5.700;2024-03-02T01:52:36;1.67;;;0.40;;
58581;SDS011;44361;51.476;5.700;2024-03-02T01:55:02;0.43;;;0.15;;
58581;SDS011;44361;51.476;5.700;2024-03-02T01:57:32;0.57;;;0.20;;
58581;SDS011;44361;51.476;5.700;2024-03-02T01:59:58;1.13;;;0.10;;
58581;SDS011;44361;51.476;5.700;2024-03-02T02:02:25;5.28;;;0.22;;
58581;SDS011;44361;51.476;5.700;2024-03-02T02:04:50;0.50;;;0.20;;
58581;SDS011;44361;51.476;5.700;2024-03-02T02:07:16;0.63;;;0.20;;
58581;SDS011;44361;51.476;5.700;2024-03-02T02:09:42;1.95;;;0.32;;
58581;SDS011;44361;51.476;5.700;2024-03-02T02:12:09;0.45;;;0.20;;
58581;SDS011;44361;51.476;5.700;2024-03-02T02:14:35;2.58;;;0.30;;
58581;SDS011;44361;51.476;5.700;2024-03-02T02:17:01;1.00;;;0.35;;
58581;SDS011;44361;51.476;5.700;2024-03-02T02:19:27;2.25;;;0.30;;
58581;SDS011;44361;51.476;5.700;2024-03-02T02:21:53;0.28;;;0.17;;
58581;SDS011;44361;51.476;5.700;2024-03-02T02:24:19;2.00;;;0.20;;
58581;SDS011;44361;51.476;5.700;2024-03-02T02:26:44;0.30;;;0.20;;
58581;SDS011;44361;51.476;5.700;2024-03-02T02:29:10;0.22;;;0.10;;
58581;SDS011;44361;51.476;5.700;2024-03-02T02:31:39;0.38;;;0.10;;
58581;SDS011;44361;51.476;5.700;2024-03-02T02:34:05;1.05;;;0.40;;
58581;SDS011;44361;51.476;5.700;2024-03-02T02:36:31;2.08;;;0.30;;
58581;SDS011;44361;51.476;5.700;2024-03-02T02:39:02;1.00;;;0.20;;
58581;SDS011;44361;51.476;5.700;2024-03-02T02:41:29;0.50;;;0.20;;
58581;SDS011;44361;51.476;5.700;2024-03-02T02:43:55;0.52;;;0.20;;
58581;SDS011;44361;51.476;5.700;2024-03-02T02:46:21;0.47;;;0.20;;
58581;SDS011;44361;51.476;5.700;2024-03-02T02:48:47;0.20;;;0.10;;
58581;SDS011;44361;51.476;5.700;2024-03-02T02:51:12;2.38;;;0.30;;
58581;SDS011;44361;51.476;5.700;2024-03-02T02:53:38;1.90;;;0.20;;
58581;SDS011;44361;51.476;5.700;2024-03-02T02:56:06;0.60;;;0.22;;
58581;SDS011;44361;51.476;5.700;2024-03-02T02:58:31;2.28;;;0.50;;
58581;SDS011;44361;51.476;5.700;2024-03-02T03:00:57;0.95;;;0.20;;
58581;SDS011;44361;51.476;5.700;2024-03-02T03:03:23;0.10;;;0.10;;
58581;SDS011;44361;51.476;5.700;2024-03-02T03:05:48;0.45;;;0.10;;
58581;SDS011;44361;51.476;5.700;2024-03-02T03:08:14;1.95;;;0.15;;
58581;SDS011;44361;51.476;5.700;2024-03-02T03:10:41;0.63;;;0.30;;
58581;SDS011;44361;51.476;5.700;2024-03-02T03:13:07;1.08;;;0.30;;
58581;SDS011;44361;51.476;5.700;2024-03-02T03:15:35;1.90;;;0.30;;
58581;SDS011;44361;51.476;5.700;2024-03-02T03:18:01;1.67;;;0.20;;
58581;SDS011;44361;51.476;5.700;2024-03-02T03:20:28;2.33;;;0.30;;
58581;SDS011;44361;51.476;5.700;2024-03-02T03:22:55;0.73;;;0.20;;
58581;SDS011;44361;51.476;5.700;2024-03-02T03:25:20;0.20;;;0.15;;
58581;SDS011;44361;51.476;5.700;2024-03-02T03:27:46;0.90;;;0.30;;
58581;SDS011;44361;51.476;5.700;2024-03-02T03:30:12;3.40;;;0.28;;
58581;SDS011;44361;51.476;5.700;2024-03-02T03:32:38;1.67;;;0.35;;
58581;SDS011;44361;51.476;5.700;2024-03-02T03:35:04;3.03;;;0.40;;
58581;SDS011;44361;51.476;5.700;2024-03-02T03:37:30;1.00;;;0.20;;
58581;SDS011;44361;51.476;5.700;2024-03-02T03:39:58;0.95;;;0.50;;
58581;SDS011;44361;51.476;5.700;2024-03-02T03:42:24;1.45;;;0.30;;
58581;SDS011;44361;51.476;5.700;2024-03-02T03:44:50;1.02;;;0.20;;
58581;SDS011;44361;51.476;5.700;2024-03-02T03:47:15;0.38;;;0.10;;
58581;SDS011;44361;51.476;5.700;2024-03-02T03:49:41;0.88;;;0.28;;
58581;SDS011;44361;51.476;5.700;2024-03-02T03:52:06;1.00;;;0.30;;
58581;SDS011;44361;51.476;5.700;2024-03-02T03:54:32;0.35;;;0.20;;
58581;SDS011;44361;51.476;5.700;2024-03-02T03:56:57;4.18;;;0.32;;
58581;SDS011;44361;51.476;5.700;2024-03-02T03:59:23;2.42;;;0.40;;
58581;SDS011;44361;51.476;5.700;2024-03-02T04:01:48;1.17;;;0.20;;
58581;SDS011;44361;51.476;5.700;2024-03-02T04:04:14;0.32;;;0.10;;
58581;SDS011;44361;51.476;5.700;2024-03-02T04:06:40;0.40;;;0.20;;
58581;SDS011;44361;51.476;5.700;2024-03-02T04:09:05;0.88;;;0.20;;
58581;SDS011;44361;51.476;5.700;2024-03-02T04:11:31;0.75;;;0.20;;
58581;SDS011;44361;51.476;5.700;2024-03-02T04:13:56;0.20;;;0.20;;
58581;SDS011;44361;51.476;5.700;2024-03-02T04:16:22;1.75;;;0.40;;
58581;SDS011;44361;51.476;5.700;2024-03-02T04:18:47;2.75;;;0.50;;
58581;SDS011;44361;51.476;5.700;2024-03-02T04:21:13;0.80;;;0.17;;
58581;SDS011;44361;51.476;5.700;2024-03-02T04:23:39;0.77;;;0.20;;
58581;SDS011;44361;51.476;5.700;2024-03-02T04:26:04;1.17;;;0.20;;
58581;SDS011;44361;51.476;5.700;2024-03-02T04:28:30;1.80;;;0.20;;
58581;SDS011;44361;51.476;5.700;2024-03-02T04:30:55;2.17;;;0.30;;
58581;SDS011;44361;51.476;5.700;2024-03-02T04:33:21;0.45;;;0.10;;
58581;SDS011;44361;51.476;5.700;2024-03-02T04:35:47;0.35;;;0.10;;
58581;SDS011;44361;51.476;5.700;2024-03-02T04:38:12;0.93;;;0.30;;
58581;SDS011;44361;51.476;5.700;2024-03-02T04:40:38;1.33;;;0.20;;
58581;SDS011;44361;51.476;5.700;2024-03-02T04:43:03;6.57;;;0.30;;
58581;SDS011;44361;51.476;5.700;2024-03-02T04:45:29;1.67;;;0.30;;
58581;SDS011;44361;51.476;5.700;2024-03-02T04:47:54;1.70;;;0.35;;
58581;SDS011;44361;51.476;5.700;2024-03-02T04:50:20;1.30;;;0.40;;
58581;SDS011;44361;51.476;5.700;2024-03-02T04:52:45;1.13;;;0.38;;
58581;SDS011;44361;51.476;5.700;2024-03-02T04:55:11;3.08;;;0.50;;
58581;SDS011;44361;51.476;5.700;2024-03-02T04:57:52;2.90;;;0.57;;
58581;SDS011;44361;51.476;5.700;2024-03-02T05:00:19;1.80;;;0.50;;
58581;SDS011;44361;51.476;5.700;2024-03-02T05:02:46;1.80;;;0.20;;
58581;SDS011;44361;51.476;5.700;2024-03-02T05:05:12;1.55;;;0.50;;
58581;SDS011;44361;51.476;5.700;2024-03-02T05:07:37;0.77;;;0.30;;
58581;SDS011;44361;51.476;5.700;2024-03-02T05:10:03;1.88;;;0.40;;
58581;SDS011;44361;51.476;5.700;2024-03-02T05:12:29;0.22;;;0.22;;
58581;SDS011;44361;51.476;5.700;2024-03-02T05:15:14;2.78;;;0.40;;
58581;SDS011;44361;51.476;5.700;2024-03-02T05:17:40;0.93;;;0.38;;
58581;SDS011;44361;51.476;5.700;2024-03-02T05:20:09;3.17;;;0.20;;
58581;SDS011;44361;51.476;5.700;2024-03-02T05:22:36;0.57;;;0.20;;
58581;SDS011;44361;51.476;5.700;2024-03-02T05:25:02;0.30;;;0.20;;
58581;SDS011;44361;51.476;5.700;2024-03-02T05:27:28;4.18;;;0.15;;
58581;SDS011;44361;51.476;5.700;2024-03-02T05:29:54;0.75;;;0.20;;
58581;SDS011;44361;51.476;5.700;2024-03-02T05:32:19;2.95;;;0.30;;
58581;SDS011;44361;51.476;5.700;2024-03-02T05:34:45;0.30;;;0.10;;
58581;SDS011;44361;51.476;5.700;2024-03-02T05:37:10;1.10;;;0.40;;
58581;SDS011;44361;51.476;5.700;2024-03-02T05:39:36;1.35;;;0.22;;
58581;SDS011;44361;51.476;5.700;2024-03-02T05:42:02;0.93;;;0.40;;
58581;SDS011;44361;51.476;5.700;2024-03-02T05:44:28;0.90;;;0.38;;
58581;SDS011;44361;51.476;5.700;2024-03-02T05:46:54;1.65;;;0.30;;
58581;SDS011;44361;51.476;5.700;2024-03-02T05:49:20;0.82;;;0.25;;
58581;SDS011;44361;51.476;5.700;2024-03-02T05:51:45;1.00;;;0.40;;
58581;SDS011;44361;51.476;5.700;2024-03-02T05:54:11;2.40;;;0.40;;
58581;SDS011;44361;51.476;5.700;2024-03-02T05:56:37;1.38;;;0.57;;
58581;SDS011;44361;51.476;5.700;2024-03-02T05:59:02;0.65;;;0.45;;
58581;SDS011;44361;51.476;5.700;2024-03-02T06:01:38;0.95;;;0.50;;
58581;SDS011;44361;51.476;5.700;2024-03-02T06:04:08;1.00;;;0.50;;
58581;SDS011;44361;51.476;5.700;2024-03-02T06:06:34;0.98;;;0.45;;
58581;SDS011;44361;51.476;5.700;2024-03-02T06:09:00;2.00;;;0.50;;
58581;SDS011;44361;51.476;5.700;2024-03-02T06:11:27;1.33;;;0.40;;
58581;SDS011;44361;51.476;5.700;2024-03-02T06:13:53;1.27;;;0.52;;
58581;SDS011;44361;51.476;5.700;2024-03-02T06:16:18;2.88;;;0.40;;
58581;SDS011;44361;51.476;5.700;2024-03-02T06:18:44;1.20;;;0.50;;
58581;SDS011;44361;51.476;5.700;2024-03-02T06:21:09;2.13;;;0.45;;
58581;SDS011;44361;51.476;5.700;2024-03-02T06:23:35;1.88;;;0.32;;
58581;SDS011;44361;51.476;5.700;2024-03-02T06:26:01;3.53;;;0.60;;
58581;SDS011;44361;51.476;5.700;2024-03-02T06:28:27;2.92;;;0.45;;
58581;SDS011;44361;51.476;5.700;2024-03-02T06:30:53;1.10;;;0.50;;
58581;SDS011;44361;51.476;5.700;2024-03-02T06:33:19;1.35;;;0.40;;
58581;SDS011;44361;51.476;5.700;2024-03-02T06:35:44;1.70;;;0.60;;
58581;SDS011;44361;51.476;5.700;2024-03-02T06:38:10;1.40;;;0.57;;
58581;SDS011;44361;51.476;5.700;2024-03-02T06:40:35;2.20;;;0.60;;
58581;SDS011;44361;51.476;5.700;2024-03-02T06:43:03;1.08;;;0.50;;
58581;SDS011;44361;51.476;5.700;2024-03-02T06:45:29;1.65;;;0.57;;
58581;SDS011;44361;51.476;5.700;2024-03-02T06:47:55;1.90;;;0.55;;
58581;SDS011;44361;51.476;5.700;2024-03-02T06:50:21;2.65;;;0.55;;
58581;SDS011;44361;51.476;5.700;2024-03-02T06:52:47;5.60;;;1.00;;
58581;SDS011;44361;51.476;5.700;2024-03-02T06:55:12;4.75;;;0.70;;
58581;SDS011;44361;51.476;5.700;2024-03-02T06:57:38;2.72;;;0.50;;
58581;SDS011;44361;51.476;5.700;2024-03-02T07:00:03;2.95;;;0.70;;
58581;SDS011;44361;51.476;5.700;2024-03-02T07:02:30;4.13;;;0.93;;
58581;SDS011;44361;51.476;5.700;2024-03-02T07:04:55;4.32;;;0.70;;
58581;SDS011;44361;51.476;5.700;2024-03-02T07:07:21;4.25;;;0.65;;
58581;SDS011;44361;51.476;5.700;2024-03-02T07:09:46;2.65;;;0.57;;
58581;SDS011;44361;51.476;5.700;2024-03-02T07:12:13;5.22;;;0.50;;
58581;SDS011;44361;51.476;5.700;2024-03-02T07:14:39;1.15;;;0.43;;
58581;SDS011;44361;51.476;5.700;2024-03-02T07:17:23;2.57;;;0.33;;
58581;SDS011;44361;51.476;5.700;2024-03-02T07:19:48;1.02;;;0.43;;
58581;SDS011;44361;51.476;5.700;2024-03-02T07:22:14;2.78;;;0.60;;
58581;SDS011;44361;51.476;5.700;2024-03-02T07:24:42;1.33;;;0.30;;
58581;SDS011;44361;51.476;5.700;2024-03-02T07:27:08;2.22;;;0.68;;
58581;SDS011;44361;51.476;5.700;2024-03-02T07:29:34;3.83;;;0.65;;
58581;SDS011;44361;51.476;5.700;2024-03-02T07:32:00;2.83;;;0.52;;
58581;SDS011;44361;51.476;5.700;2024-03-02T07:34:26;1.73;;;0.50;;
58581;SDS011;44361;51.476;5.700;2024-03-02T07:36:51;4.78;;;0.90;;
58581;SDS011;44361;51.476;5.700;2024-03-02T07:39:17;3.90;;;0.70;;
58581;SDS011;44361;51.476;5.700;2024-03-02T07:41:44;1.92;;;0.45;;
58581;SDS011;44361;51.476;5.700;2024-03-02T07:44:10;3.42;;;0.75;;
58581;SDS011;44361;51.476;5.700;2024-03-02T07:46:39;3.53;;;0.63;;
58581;SDS011;44361;51.476;5.700;2024-03-02T07:49:05;3.17;;;0.50;;
58581;SDS011;44361;51.476;5.700;2024-03-02T07:51:31;5.28;;;0.60;;
58581;SDS011;44361;51.476;5.700;2024-03-02T07:53:57;5.05;;;0.82;;
58581;SDS011;44361;51.476;5.700;2024-03-02T07:56:22;2.17;;;0.68;;
58581;SDS011;44361;51.476;5.700;2024-03-02T07:58:48;2.58;;;0.65;;
58581;SDS011;44361;51.476;5.700;2024-03-02T08:01:14;4.78;;;1.08;;
58581;SDS011;44361;51.476;5.700;2024-03-02T08:03:40;4.40;;;0.52;;
58581;SDS011;44361;51.476;5.700;2024-03-02T08:06:06;2.88;;;0.50;;
58581;SDS011;44361;51.476;5.700;2024-03-02T08:08:31;2.30;;;0.40;;
58581;SDS011;44361;51.476;5.700;2024-03-02T08:10:57;3.30;;;0.47;;
58581;SDS011;44361;51.476;5.700;2024-03-02T08:13:22;3.92;;;0.68;;
58581;SDS011;44361;51.476;5.700;2024-03-02T08:15:48;2.60;;;0.50;;
58581;SDS011;44361;51.476;5.700;2024-03-02T08:18:14;3.58;;;0.73;;
58581;SDS011;44361;51.476;5.700;2024-03-02T08:20:40;3.42;;;0.70;;
58581;SDS011;44361;51.476;5.700;2024-03-02T08:23:05;3.65;;;0.70;;
58581;SDS011;44361;51.476;5.700;2024-03-02T08:25:33;4.35;;;0.50;;
58581;SDS011;44361;51.476;5.700;2024-03-02T08:27:58;3.63;;;0.47;;
58581;SDS011;44361;51.476;5.700;2024-03-02T08:30:24;2.05;;;0.30;;
58581;SDS011;44361;51.476;5.700;2024-03-02T08:32:49;3.20;;;0.60;;
58581;SDS011;44361;51.476;5.700;2024-03-02T08:35:15;3.42;;;0.68;;
58581;SDS011;44361;51.476;5.700;2024-03-02T08:37:42;4.57;;;0.70;;
58581;SDS011;44361;51.476;5.700;2024-03-02T08:40:08;4.50;;;0.65;;
58581;SDS011;44361;51.476;5.700;2024-03-02T08:42:34;4.57;;;0.55;;
58581;SDS011;44361;51.476;5.700;2024-03-02T08:45:00;3.85;;;0.70;;
58581;SDS011;44361;51.476;5.700;2024-03-02T08:47:26;6.53;;;0.98;;
58581;SDS011;44361;51.476;5.700;2024-03-02T08:49:52;5.72;;;0.85;;
58581;SDS011;44361;51.476;5.700;2024-03-02T08:52:18;3.03;;;0.40;;
58581;SDS011;44361;51.476;5.700;2024-03-02T08:54:43;2.83;;;0.80;;
58581;SDS011;44361;51.476;5.700;2024-03-02T08:57:09;3.72;;;0.73;;
58581;SDS011;44361;51.476;5.700;2024-03-02T08:59:35;5.82;;;0.88;;
58581;SDS011;44361;51.476;5.700;2024-03-02T09:02:00;3.15;;;0.52;;
58581;SDS011;44361;51.476;5.700;2024-03-02T09:04:26;5.63;;;1.05;;
58581;SDS011;44361;51.476;5.700;2024-03-02T09:06:52;3.17;;;0.75;;
58581;SDS011;44361;51.476;5.700;2024-03-02T09:09:18;7.13;;;0.88;;
58581;SDS011;44361;51.476;5.700;2024-03-02T09:11:43;2.30;;;0.52;;
58581;SDS011;44361;51.476;5.700;2024-03-02T09:14:11;2.67;;;0.40;;
58581;SDS011;44361;51.476;5.700;2024-03-02T09:16:37;2.38;;;0.45;;
58581;SDS011;44361;51.476;5.700;2024-03-02T09:19:03;4.47;;;0.70;;
58581;SDS011;44361;51.476;5.700;2024-03-02T09:21:28;4.50;;;0.50;;
58581;SDS011;44361;51.476;5.700;2024-03-02T09:23:55;2.90;;;0.50;;
58581;SDS011;44361;51.476;5.700;2024-03-02T09:26:21;4.50;;;0.60;;
58581;SDS011;44361;51.476;5.700;2024-03-02T09:28:47;7.88;;;0.68;;
58581;SDS011;44361;51.476;5.700;2024-03-02T09:31:13;2.42;;;0.45;;
58581;SDS011;44361;51.476;5.700;2024-03-02T09:33:38;3.72;;;0.77;;
58581;SDS011;44361;51.476;5.700;2024-03-02T09:36:04;6.80;;;0.75;;
58581;SDS011;44361;51.476;5.700;2024-03-02T09:38:33;1.95;;;0.50;;
58581;SDS011;44361;51.476;5.700;2024-03-02T09:40:59;4.07;;;0.40;;
58581;SDS011;44361;51.476;5.700;2024-03-02T09:43:25;3.10;;;0.47;;
58581;SDS011;44361;51.476;5.700;2024-03-02T09:45:51;1.55;;;0.38;;
58581;SDS011;44361;51.476;5.700;2024-03-02T09:48:18;1.77;;;0.43;;
58581;SDS011;44361;51.476;5.700;2024-03-02T09:50:45;2.95;;;0.30;;
58581;SDS011;44361;51.476;5.700;2024-03-02T09:53:11;4.15;;;1.38;;
58581;SDS011;44361;51.476;5.700;2024-03-02T09:55:38;2.05;;;0.50;;
58581;SDS011;44361;51.476;5.700;2024-03-02T09:58:08;4.22;;;0.50;;
58581;SDS011;44361;51.476;5.700;2024-03-02T10:00:34;3.05;;;0.40;;
58581;SDS011;44361;51.476;5.700;2024-03-02T10:02:59;5.57;;;0.77;;
58581;SDS011;44361;51.476;5.700;2024-03-02T10:05:26;4.15;;;0.68;;
58581;SDS011;44361;51.476;5.700;2024-03-02T10:08:01;3.22;;;0.68;;
58581;SDS011;44361;51.476;5.700;2024-03-02T10:10:37;2.47;;;0.65;;
58581;SDS011;44361;51.476;5.700;2024-03-02T10:13:08;5.97;;;0.68;;
58581;SDS011;44361;51.476;5.700;2024-03-02T10:15:35;3.83;;;0.68;;
58581;SDS011;44361;51.476;5.700;2024-03-02T10:18:08;7.75;;;0.57;;
58581;SDS011;44361;51.476;5.700;2024-03-02T10:20:37;7.63;;;0.90;;
58581;SDS011;44361;51.476;5.700;2024-03-02T10:23:13;3.42;;;0.65;;
58581;SDS011;44361;51.476;5.700;2024-03-02T10:25:40;7.63;;;0.70;;
58581;SDS011;44361;51.476;5.700;2024-03-02T10:28:06;5.30;;;1.33;;
58581;SDS011;44361;51.476;5.700;2024-03-02T10:30:32;4.40;;;0.70;;
58581;SDS011;44361;51.476;5.700;2024-03-02T10:32:59;6.43;;;1.40;;
58581;SDS011;44361;51.476;5.700;2024-03-02T10:35:27;4.47;;;1.00;;
58581;SDS011;44361;51.476;5.700;2024-03-02T10:37:52;6.35;;;1.27;;
58581;SDS011;44361;51.476;5.700;2024-03-02T10:40:20;6.70;;;0.68;;
58581;SDS011;44361;51.476;5.700;2024-03-02T10:42:47;14.95;;;1.23;;
58581;SDS011;44361;51.476;5.700;2024-03-02T10:45:15;1.95;;;0.70;;
58581;SDS011;44361;51.476;5.700;2024-03-02T10:47:42;5.32;;;0.60;;
58581;SDS011;44361;51.476;5.700;2024-03-02T10:50:08;2.83;;;0.30;;
58581;SDS011;44361;51.476;5.700;2024-03-02T10:52:34;5.55;;;0.80;;
58581;SDS011;44361;51.476;5.700;2024-03-02T10:55:00;2.33;;;0.30;;
58581;SDS011;44361;51.476;5.700;2024-03-02T10:57:26;3.67;;;0.80;;
58581;SDS011;44361;51.476;5.700;2024-03-02T10:59:57;3.10;;;0.55;;
58581;SDS011;44361;51.476;5.700;2024-03-02T11:02:28;1.65;;;0.70;;
58581;SDS011;44361;51.476;5.700;2024-03-02T11:04:56;3.80;;;0.73;;
58581;SDS011;44361;51.476;5.700;2024-03-02T11:07:25;2.65;;;0.60;;
58581;SDS011;44361;51.476;5.700;2024-03-02T11:09:59;2.58;;;0.60;;
58581;SDS011;44361;51.476;5.700;2024-03-02T11:12:38;3.78;;;0.50;;
58581;SDS011;44361;51.476;5.700;2024-03-02T11:15:10;1.77;;;0.73;;
58581;SDS011;44361;51.476;5.700;2024-03-02T11:17:41;5.10;;;0.60;;
58581;SDS011;44361;51.476;5.700;2024-03-02T11:20:08;5.28;;;0.50;;
58581;SDS011;44361;51.476;5.700;2024-03-02T11:22:35;5.22;;;0.80;;
58581;SDS011;44361;51.476;5.700;2024-03-02T11:25:01;4.38;;;0.68;;
58581;SDS011;44361;51.476;5.700;2024-03-02T11:30:56;2.10;;;0.50;;
58581;SDS011;44361;51.476;5.700;2024-03-02T11:32:56;6.00;;;0.57;;
58581;SDS011;44361;51.476;5.700;2024-03-02T11:35:29;2.55;;;0.70;;
58581;SDS011;44361;51.476;5.700;2024-03-02T11:37:54;1.95;;;0.60;;
58581;SDS011;44361;51.476;5.700;2024-03-02T11:40:24;3.45;;;0.75;;
58581;SDS011;44361;51.476;5.700;2024-03-02T11:42:50;3.78;;;0.95;;
58581;SDS011;44361;51.476;5.700;2024-03-02T11:45:16;2.97;;;0.65;;
58581;SDS011;44361;51.476;5.700;2024-03-02T11:47:46;4.43;;;0.65;;
58581;SDS011;44361;51.476;5.700;2024-03-02T11:50:15;4.70;;;1.00;;
58581;SDS011;44361;51.476;5.700;2024-03-02T11:52:53;3.53;;;1.00;;
58581;SDS011;44361;51.476;5.700;2024-03-02T11:55:18;3.17;;;0.90;;
58581;SDS011;44361;51.476;5.700;2024-03-02T11:57:45;7.05;;;1.00;;
58581;SDS011;44361;51.476;5.700;2024-03-02T12:00:18;2.75;;;0.77;;
58581;SDS011;44361;51.476;5.700;2024-03-02T12:02:45;3.47;;;0.90;;
58581;SDS011;44361;51.476;5.700;2024-03-02T12:05:31;6.32;;;0.98;;
58581;SDS011;44361;51.476;5.700;2024-03-02T12:07:58;6.05;;;0.98;;
58581;SDS011;44361;51.476;5.700;2024-03-02T12:10:25;3.60;;;0.52;;
58581;SDS011;44361;51.476;5.700;2024-03-02T12:12:55;4.22;;;0.55;;
58581;SDS011;44361;51.476;5.700;2024-03-02T12:15:25;1.30;;;0.40;;
58581;SDS011;44361;51.476;5.700;2024-03-02T12:17:53;4.30;;;1.00;;
58581;SDS011;44361;51.476;5.700;2024-03-02T12:20:22;1.52;;;0.47;;
58581;SDS011;44361;51.476;5.700;2024-03-02T12:22:49;3.92;;;0.43;;
58581;SDS011;44361;51.476;5.700;2024-03-02T12:25:17;3.58;;;0.50;;
58581;SDS011;44361;51.476;5.700;2024-03-02T12:27:44;4.05;;;0.60;;
58581;SDS011;44361;51.476;5.700;2024-03-02T12:30:11;4.18;;;0.60;;
58581;SDS011;44361;51.476;5.700;2024-03-02T12:32:38;2.25;;;0.70;;
58581;SDS011;44361;51.476;5.700;2024-03-02T12:35:05;4.18;;;0.60;;
58581;SDS011;44361;51.476;5.700;2024-03-02T12:37:31;4.57;;;0.70;;
58581;SDS011;44361;51.476;5.700;2024-03-02T12:39:57;5.70;;;0.90;;
58581;SDS011;44361;51.476;5.700;2024-03-02T12:42:23;2.03;;;0.77;;
58581;SDS011;44361;51.476;5.700;2024-03-02T12:44:51;7.95;;;0.80;;
58581;SDS011;44361;51.476;5.700;2024-03-02T12:47:19;3.85;;;1.15;;
58581;SDS011;44361;51.476;5.700;2024-03-02T12:49:45;1.73;;;0.50;;
58581;SDS011;44361;51.476;5.700;2024-03-02T12:52:12;2.38;;;0.43;;
58581;SDS011;44361;51.476;5.700;2024-03-02T12:54:40;4.13;;;0.73;;
58581;SDS011;44361;51.476;5.700;2024-03-02T12:57:06;4.15;;;0.40;;
58581;SDS011;44361;51.476;5.700;2024-03-02T12:59:32;4.38;;;0.63;;
58581;SDS011;44361;51.476;5.700;2024-03-02T13:01:58;3.03;;;0.50;;
58581;SDS011;44361;51.476;5.700;2024-03-02T13:04:24;3.42;;;0.45;;
58581;SDS011;44361;51.476;5.700;2024-03-02T13:06:51;2.75;;;0.70;;
58581;SDS011;44361;51.476;5.700;2024-03-02T13:09:18;2.20;;;0.50;;
58581;SDS011;44361;51.476;5.700;2024-03-02T13:11:44;3.97;;;0.60;;
58581;SDS011;44361;51.476;5.700;2024-03-02T13:14:12;2.13;;;0.40;;
58581;SDS011;44361;51.476;5.700;2024-03-02T13:16:39;5.22;;;0.75;;
58581;SDS011;44361;51.476;5.700;2024-03-02T13:19:07;2.33;;;0.45;;
58581;SDS011;44361;51.476;5.700;2024-03-02T13:21:38;2.05;;;0.80;;
58581;SDS011;44361;51.476;5.700;2024-03-02T13:24:04;1.05;;;0.30;;
58581;SDS011;44361;51.476;5.700;2024-03-02T13:26:31;2.20;;;0.55;;
58581;SDS011;44361;51.476;5.700;2024-03-02T13:28:56;2.85;;;0.55;;
58581;SDS011;44361;51.476;5.700;2024-03-02T13:31:22;4.88;;;0.60;;
58581;SDS011;44361;51.476;5.700;2024-03-02T13:33:47;6.07;;;0.75;;
58581;SDS011;44361;51.476;5.700;2024-03-02T13:36:13;3.28;;;0.43;;
58581;SDS011;44361;51.476;5.700;2024-03-02T13:38:39;2.85;;;0.68;;
58581;SDS011;44361;51.476;5.700;2024-03-02T13:41:04;4.35;;;0.63;;
58581;SDS011;44361;51.476;5.700;2024-03-02T13:43:30;2.78;;;0.60;;
58581;SDS011;44361;51.476;5.700;2024-03-02T13:46:00;3.25;;;0.80;;
58581;SDS011;44361;51.476;5.700;2024-03-02T13:48:26;3.05;;;0.47;;
58581;SDS011;44361;51.476;5.700;2024-03-02T13:50:52;3.38;;;0.60;;
58581;SDS011;44361;51.476;5.700;2024-03-02T13:53:18;3.53;;;0.70;;
58581;SDS011;44361;51.476;5.700;2024-03-02T13:55:44;1.60;;;0.47;;
58581;SDS011;44361;51.476;5.700;2024-03-02T13:58:10;2.15;;;0.55;;
58581;SDS011;44361;51.476;5.700;2024-03-02T14:00:37;2.72;;;0.60;;
58581;SDS011;44361;51.476;5.700;2024-03-02T14:03:03;2.95;;;0.60;;
58581;SDS011;44361;51.476;5.700;2024-03-02T14:05:30;1.25;;;0.30;;
58581;SDS011;44361;51.476;5.700;2024-03-02T14:07:56;1.70;;;0.50;;
58581;SDS011;44361;51.476;5.700;2024-03-02T14:10:22;2.17;;;0.68;;
58581;SDS011;44361;51.476;5.700;2024-03-02T14:12:48;3.35;;;0.52;;
58581;SDS011;44361;51.476;5.700;2024-03-02T14:15:14;2.45;;;0.55;;
58581;SDS011;44361;51.476;5.700;2024-03-02T14:17:40;1.73;;;0.40;;
58581;SDS011;44361;51.476;5.700;2024-03-02T14:20:05;2.55;;;0.60;;
58581;SDS011;44361;51.476;5.700;2024-03-02T14:22:32;3.30;;;0.73;;
58581;SDS011;44361;51.476;5.700;2024-03-02T14:24:58;2.90;;;0.80;;
58581;SDS011;44361;51.476;5.700;2024-03-02T14:27:24;1.80;;;0.57;;
58581;SDS011;44361;51.476;5.700;2024-03-02T14:29:50;1.73;;;0.30;;
58581;SDS011;44361;51.476;5.700;2024-03-02T14:32:16;3.03;;;0.50;;
58581;SDS011;44361;51.476;5.700;2024-03-02T14:34:41;4.22;;;0.60;;
58581;SDS011;44361;51.476;5.700;2024-03-02T14:37:07;5.05;;;0.70;;
58581;SDS011;44361;51.476;5.700;2024-03-02T14:39:33;3.08;;;0.80;;
58581;SDS011;44361;51.476;5.700;2024-03-02T14:41:59;2.60;;;0.70;;
58581;SDS011;44361;51.476;5.700;2024-03-02T14:44:26;2.67;;;0.52;;
58581;SDS011;44361;51.476;5.700;2024-03-02T14:46:51;4.22;;;0.50;;
58581;SDS011;44361;51.476;5.700;2024-03-02T14:49:17;4.57;;;0.80;;
58581;SDS011;44361;51.476;5.700;2024-03-02T14:51:43;1.55;;;0.50;;